Time;durP1;ratioP1;P1;durP2;ratioP2;P2;SDS_P1;SDS_P2;PMS_P1;PMS_P2;Temp;Humidity;BMP_temperature;BMP_pressure;BME280_temperature;BME280_humidity;BME280_pressure;Samples;Min_cycle;Max_cycle;Signal;HPM_P1;HPM_P2
2023/12/22 00:01:07;;;;;;;;;;;4.90;87.50;;;;;;5055347;28;20401;-45
2023/12/22 00:03:34;;;;;;;16.48;3.80;;;5.00;87.30;;;;;;5054660;28;19905;-48
2023/12/22 00:06:03;;;;;;;10.27;2.55;;;5.20;87.00;;;;;;5037251;28;20024;-53
2023/12/22 00:08:30;;;;;;;9.00;2.03;;;5.20;87.10;;;;;;5037646;28;20039;-50
2023/12/22 00:11:01;;;;;;;9.10;2.60;;;4.90;88.00;;;;;;5071552;28;20401;-49
2023/12/22 00:13:28;;;;;;;6.97;1.13;;;4.90;88.60;;;;;;5074588;28;20025;-47
2023/12/22 00:15:56;;;;;;;1.98;0.80;;;4.70;88.40;;;;;;5057533;28;20056;-47
2023/12/22 00:18:23;;;;;;;8.70;1.30;;;4.60;88.40;;;;;;5074660;28;20040;-48
2023/12/22 00:20:50;;;;;;;10.27;1.45;;;4.50;88.60;;;;;;5074829;28;20562;-48
2023/12/22 00:23:20;;;;;;;6.63;1.45;;;4.50;89.00;;;;;;5078257;28;20032;-49
2023/12/22 00:25:50;;;;;;;12.45;1.98;;;4.50;89.30;;;;;;5078719;28;20346;-46
2023/12/22 00:28:16;;;;;;;10.40;2.33;;;4.50;89.30;;;;;;5074039;28;20106;-48
2023/12/22 00:30:43;;;;;;;8.80;1.80;;;4.60;89.20;;;;;;5075149;28;20038;-48
2023/12/22 00:33:10;;;;;;;14.40;2.95;;;4.70;89.40;;;;;;5074199;28;20025;-46
2023/12/22 00:35:38;;;;;;;13.60;2.67;;;4.70;89.50;;;;;;5073968;28;20134;-45
2023/12/22 00:38:05;;;;;;;16.65;2.70;;;4.80;89.50;;;;;;5092297;28;20020;-47
2023/12/22 00:40:33;;;;;;;17.85;4.03;;;4.90;89.40;;;;;;5086788;28;20031;-46
2023/12/22 00:42:58;;;;;;;11.90;3.78;;;5.00;89.10;;;;;;5073825;28;20090;-45
2023/12/22 00:45:28;;;;;;;7.20;1.60;;;4.90;86.80;;;;;;5089378;28;20032;-46
2023/12/22 00:47:55;;;;;;;6.28;1.00;;;4.90;83.30;;;;;;5085884;28;20043;-46
2023/12/22 00:50:22;;;;;;;9.65;0.95;;;4.80;81.60;;;;;;5090401;28;20472;-45
2023/12/22 00:52:47;;;;;;;3.83;1.20;;;4.70;82.40;;;;;;5093852;28;20117;-46
2023/12/22 00:55:13;;;;;;;6.50;2.00;;;4.70;82.60;;;;;;5093739;28;20446;-45
2023/12/22 00:57:41;;;;;;;8.52;1.75;;;4.70;82.90;;;;;;5072066;28;20039;-44
2023/12/22 01:00:12;;;;;;;13.07;3.40;;;4.70;83.70;;;;;;5073939;28;20029;-45
2023/12/22 01:02:42;;;;;;;9.30;2.42;;;4.70;84.50;;;;;;5073415;28;20044;-45
2023/12/22 01:05:12;;;;;;;16.67;2.88;;;4.80;85.20;;;;;;5072586;28;20080;-46
2023/12/22 01:07:48;;;;;;;15.32;3.53;;;4.80;85.60;;;;;;5092108;28;20024;-46
2023/12/22 01:10:19;;;;;;;19.67;4.35;;;4.90;85.60;;;;;;5074002;28;20052;-45
2023/12/22 01:12:46;;;;;;;19.45;4.75;;;5.00;85.90;;;;;;5074225;28;20385;-45
2023/12/22 01:15:11;;;;;;;18.40;3.42;;;5.00;85.60;;;;;;5073527;28;20431;-47
2023/12/22 01:17:37;;;;;;;22.25;6.18;;;5.00;85.80;;;;;;5074594;28;20045;-46
2023/12/22 01:20:04;;;;;;;16.17;4.15;;;5.00;86.10;;;;;;5093923;28;20024;-46
2023/12/22 01:22:34;;;;;;;20.42;3.20;;;5.00;86.30;;;;;;5086915;28;20429;-46
2023/12/22 01:25:04;;;;;;;20.58;4.60;;;5.00;86.30;;;;;;5092251;28;20091;-46
2023/12/22 01:27:33;;;;;;;18.30;4.05;;;5.10;86.60;;;;;;5093779;28;20115;-46
2023/12/22 01:30:01;;;;;;;22.83;3.90;;;5.10;86.60;;;;;;5082244;28;20032;-46
2023/12/22 01:32:34;;;;;;;21.88;4.07;;;5.20;85.80;;;;;;5055564;28;20020;-47
2023/12/22 01:35:06;;;;;;;14.30;2.63;;;5.20;84.40;;;;;;5069565;28;20081;-46
2023/12/22 01:37:34;;;;;;;11.30;2.40;;;5.10;83.70;;;;;;5078103;28;20027;-47
2023/12/22 01:39:59;;;;;;;16.05;3.35;;;5.00;83.30;;;;;;5073154;28;20167;-47
2023/12/22 01:42:26;;;;;;;25.67;6.30;;;5.00;83.80;;;;;;5073438;28;20473;-46
2023/12/22 01:44:53;;;;;;;23.40;4.70;;;5.20;84.10;;;;;;5081739;28;20021;-51
2023/12/22 01:47:23;;;;;;;15.32;4.35;;;5.30;84.60;;;;;;5055638;28;20061;-49
2023/12/22 01:49:50;;;;;;;24.05;3.83;;;5.40;84.70;;;;;;5073269;28;20447;-47
2023/12/22 01:52:31;;;;;;;17.25;4.95;;;5.40;84.60;;;;;;5073144;28;20105;-47
2023/12/22 01:55:00;;;;;;;21.13;5.95;;;5.30;85.00;;;;;;5063574;28;20024;-47
2023/12/22 01:57:30;;;;;;;23.95;5.93;;;5.20;85.10;;;;;;5093396;28;20054;-46
2023/12/22 01:59:59;;;;;;;14.52;3.75;;;5.10;85.20;;;;;;5071914;28;20153;-47
2023/12/22 02:02:29;;;;;;;15.88;3.10;;;5.00;85.20;;;;;;5072885;28;20036;-47
2023/12/22 02:05:11;;;;;;;12.93;2.70;;;4.90;85.20;;;;;;5073099;28;20434;-46
2023/12/22 02:07:40;;;;;;;17.83;3.42;;;4.90;85.20;;;;;;5073116;28;20077;-47
2023/12/22 02:10:11;;;;;;;13.57;2.80;;;4.90;84.80;;;;;;5080097;28;20365;-47
2023/12/22 02:12:38;;;;;;;14.75;2.85;;;5.00;84.30;;;;;;5055656;28;20067;-47
2023/12/22 02:15:07;;;;;;;14.45;3.95;;;5.00;84.20;;;;;;5072742;28;20025;-48
2023/12/22 02:17:55;;;;;;;19.73;4.13;;;5.00;84.80;;;;;;5055128;28;20029;-47
2023/12/22 02:20:25;;;;;;;19.38;3.97;;;5.20;84.90;;;;;;5055365;28;20036;-47
2023/12/22 02:23:04;;;;;;;20.13;3.63;;;5.20;84.90;;;;;;5074469;28;20025;-48
2023/12/22 02:25:33;;;;;;;12.85;3.40;;;5.20;84.40;;;;;;5078653;28;20113;-47
2023/12/22 02:28:10;;;;;;;19.92;4.95;;;5.30;84.10;;;;;;5111365;28;20047;-47
2023/12/22 02:30:43;;;;;;;22.15;4.75;;;5.40;83.40;;;;;;5054543;28;20048;-47
2023/12/22 02:33:13;;;;;;;23.95;6.00;;;5.40;82.60;;;;;;5074918;28;20500;-47
2023/12/22 02:35:42;;;;;;;27.05;5.22;;;5.50;81.90;;;;;;5092463;28;20050;-47
2023/12/22 02:38:23;;;;;;;18.80;3.45;;;5.50;81.20;;;;;;5054413;28;20166;-47
2023/12/22 02:40:50;;;;;;;15.15;4.30;;;5.60;79.50;;;;;;5072896;28;20025;-46
2023/12/22 02:43:17;;;;;;;16.90;4.18;;;5.60;79.40;;;;;;5073053;28;20028;-48
2023/12/22 02:45:49;;;;;;;15.70;3.78;;;5.60;78.80;;;;;;5079399;28;20016;-46
2023/12/22 02:48:18;;;;;;;18.05;3.03;;;5.70;77.90;;;;;;5076437;28;20051;-48
2023/12/22 02:50:46;;;;;;;15.82;3.58;;;5.80;78.40;;;;;;5082358;28;20020;-46
2023/12/22 02:53:11;;;;;;;12.02;3.10;;;5.80;79.90;;;;;;5090388;28;20032;-47
2023/12/22 02:55:38;;;;;;;13.40;3.83;;;5.50;81.90;;;;;;5096159;28;20329;-47
2023/12/22 02:58:05;;;;;;;16.77;3.92;;;5.20;83.70;;;;;;5096453;28;20032;-46
2023/12/22 03:00:32;;;;;;;28.27;4.15;;;5.00;85.10;;;;;;5079835;28;20458;-47
2023/12/22 03:02:59;;;;;;;27.17;6.13;;;4.90;85.60;;;;;;5076442;28;20033;-48
2023/12/22 03:05:25;;;;;;;19.25;4.05;;;4.90;86.20;;;;;;5084016;28;20028;-46
2023/12/22 03:07:53;;;;;;;15.65;4.18;;;4.90;86.80;;;;;;5076181;28;20078;-50
2023/12/22 03:10:20;;;;;;;26.55;4.15;;;5.00;87.00;;;;;;5075898;28;20116;-42
2023/12/22 03:12:46;;;;;;;20.17;4.43;;;5.00;87.90;;;;;;5076224;28;20037;-44
2023/12/22 03:15:13;;;;;;;15.60;3.53;;;5.00;88.20;;;;;;5057952;28;20040;-43
2023/12/22 03:17:38;;;;;;;13.10;2.85;;;5.00;87.10;;;;;;5086153;28;20448;-44
2023/12/22 03:20:05;;;;;;;12.98;3.13;;;5.00;86.30;;;;;;5077066;28;20028;-48
2023/12/22 03:22:32;;;;;;;12.35;3.10;;;4.90;87.10;;;;;;5058378;28;20487;-49
2023/12/22 03:25:01;;;;;;;8.80;1.98;;;4.20;88.70;;;;;;5075681;28;20040;-47
2023/12/22 03:27:28;;;;;;;11.07;2.13;;;3.90;90.30;;;;;;5058124;28;20040;-54
2023/12/22 03:29:54;;;;;;;9.70;1.65;;;3.80;91.80;;;;;;5083710;28;20028;-55
2023/12/22 03:32:24;;;;;;;9.73;1.67;;;3.40;91.70;;;;;;5057985;28;20036;-48
2023/12/22 03:34:51;;;;;;;10.00;1.38;;;3.30;92.70;;;;;;5079246;28;20020;-48
2023/12/22 03:37:18;;;;;;;7.30;1.10;;;3.30;92.50;;;;;;5104030;28;20028;-47
2023/12/22 03:39:45;;;;;;;9.80;1.85;;;3.30;92.50;;;;;;5101839;28;20016;-46
2023/12/22 03:42:12;;;;;;;11.13;1.45;;;3.30;92.70;;;;;;5083129;28;20035;-49
2023/12/22 03:44:40;;;;;;;8.35;1.95;;;3.30;92.50;;;;;;5084146;28;20028;-50
2023/12/22 03:47:10;;;;;;;12.93;2.30;;;3.30;92.70;;;;;;5066759;28;20506;-49
2023/12/22 03:49:38;;;;;;;14.68;2.38;;;3.30;92.90;;;;;;5088621;28;20028;-51
2023/12/22 03:52:04;;;;;;;14.18;2.22;;;3.30;93.10;;;;;;5090989;28;20035;-51
2023/12/22 03:54:31;;;;;;;17.23;3.28;;;3.40;93.40;;;;;;5074352;28;20438;-49
2023/12/22 03:56:59;;;;;;;21.25;3.35;;;3.50;93.60;;;;;;5095234;28;20103;-48
2023/12/22 03:59:28;;;;;;;13.43;3.78;;;3.60;93.60;;;;;;5094693;28;20055;-49
2023/12/22 04:01:57;;;;;;;16.48;3.22;;;3.70;93.40;;;;;;5091309;28;20103;-48
2023/12/22 04:04:23;;;;;;;16.80;5.15;;;3.80;93.20;;;;;;5077694;28;20029;-51
2023/12/22 04:06:54;;;;;;;25.17;4.45;;;3.90;93.20;;;;;;5095178;28;20064;-47
2023/12/22 04:09:21;;;;;;;17.48;4.18;;;3.90;93.10;;;;;;5095562;28;20028;-49
2023/12/22 04:11:49;;;;;;;14.32;2.95;;;4.10;92.80;;;;;;5072523;28;20070;-48
2023/12/22 04:14:16;;;;;;;14.73;3.63;;;4.20;92.30;;;;;;5075202;28;20024;-47
2023/12/22 04:16:44;;;;;;;14.63;3.25;;;4.30;90.50;;;;;;5086498;28;20480;-49
2023/12/22 04:19:11;;;;;;;17.33;3.50;;;4.30;89.50;;;;;;5090288;28;20024;-46
2023/12/22 04:21:37;;;;;;;22.27;6.32;;;4.40;86.60;;;;;;5075071;28;20048;-48
2023/12/22 04:24:05;;;;;;;11.50;2.80;;;4.60;85.60;;;;;;5085359;28;20422;-47
2023/12/22 04:26:33;;;;;;;13.40;2.85;;;4.60;84.40;;;;;;5090256;28;20028;-46
2023/12/22 04:29:00;;;;;;;20.65;3.25;;;4.70;84.90;;;;;;5086069;28;20035;-48
2023/12/22 04:31:27;;;;;;;24.30;4.72;;;4.70;84.90;;;;;;5086787;28;20402;-45
2023/12/22 04:33:55;;;;;;;13.13;4.80;;;4.80;84.20;;;;;;5094567;28;20104;-45
2023/12/22 04:36:23;;;;;;;16.30;3.22;;;4.80;84.00;;;;;;5086146;28;20063;-46
2023/12/22 04:38:51;;;;;;;16.05;2.55;;;4.90;81.90;;;;;;5094524;28;20028;-46
2023/12/22 04:41:16;;;;;;;13.68;2.58;;;4.90;81.00;;;;;;5094330;28;20429;-48
2023/12/22 04:43:42;;;;;;;14.52;2.47;;;4.90;81.60;;;;;;5094463;28;20038;-47
2023/12/22 04:46:10;;;;;;;12.35;2.50;;;4.80;83.90;;;;;;5094141;28;20093;-46
2023/12/22 04:48:35;;;;;;;14.05;2.85;;;4.60;84.90;;;;;;5094577;28;20342;-46
2023/12/22 04:51:02;;;;;;;16.95;3.30;;;4.50;85.80;;;;;;5076663;28;20035;-46
2023/12/22 04:53:29;;;;;;;19.90;3.95;;;4.40;86.20;;;;;;5086596;28;20630;-47
2023/12/22 04:55:56;;;;;;;26.35;5.05;;;4.40;86.40;;;;;;5074215;28;20047;-46
2023/12/22 04:58:23;;;;;;;19.67;4.75;;;4.50;86.40;;;;;;5077756;28;20039;-47
2023/12/22 05:01:00;;;;;;;23.13;4.50;;;4.70;85.60;;;;;;5077844;28;20037;-47
2023/12/22 05:03:26;;;;;;;16.27;4.63;;;4.90;84.70;;;;;;5077446;28;20031;-46
2023/12/22 05:05:53;;;;;;;18.65;4.65;;;5.00;84.20;;;;;;5094050;28;20047;-46
2023/12/22 05:08:21;;;;;;;19.45;5.47;;;5.20;83.90;;;;;;5093824;28;20055;-47
2023/12/22 05:10:46;;;;;;;20.15;4.80;;;5.20;85.00;;;;;;5093305;28;20102;-49
2023/12/22 05:13:13;;;;;;;28.40;4.00;;;5.30;84.30;;;;;;5074099;28;20044;-48
2023/12/22 05:15:38;;;;;;;15.50;3.40;;;5.20;83.60;;;;;;5073226;28;20024;-49
2023/12/22 05:18:07;;;;;;;20.88;4.00;;;5.20;83.00;;;;;;5073738;28;20095;-49
2023/12/22 05:20:35;;;;;;;16.75;4.15;;;5.20;83.60;;;;;;5074223;28;20082;-50
2023/12/22 05:23:03;;;;;;;22.60;5.03;;;5.30;84.80;;;;;;5075712;28;20025;-47
2023/12/22 05:25:31;;;;;;;17.33;3.40;;;5.30;85.30;;;;;;5093020;28;20024;-46
2023/12/22 05:27:57;;;;;;;23.70;4.35;;;5.20;86.10;;;;;;5093883;28;20040;-46
2023/12/22 05:30:25;;;;;;;14.07;3.63;;;5.10;86.50;;;;;;5093894;28;20039;-47
2023/12/22 05:32:50;;;;;;;10.82;2.08;;;4.70;84.40;;;;;;5081400;28;20099;-46
2023/12/22 05:35:16;;;;;;;10.40;2.40;;;4.50;83.20;;;;;;5056291;28;20171;-46
2023/12/22 05:37:43;;;;;;;9.35;2.45;;;4.40;83.70;;;;;;5055845;28;20047;-45
2023/12/22 05:40:09;;;;;;;16.98;3.35;;;4.30;84.00;;;;;;5087121;28;20024;-46
2023/12/22 05:42:36;;;;;;;14.95;2.65;;;4.30;84.40;;;;;;5093695;28;20373;-45
2023/12/22 05:45:06;;;;;;;18.48;3.05;;;4.40;85.00;;;;;;5093488;28;20032;-45
2023/12/22 05:47:33;;;;;;;;;;;4.40;85.90;;;;;;5084385;28;20030;-45
2023/12/22 05:50:00;;;;;;;12.82;3.83;;;4.50;86.10;;;;;;5093569;28;20391;-45
2023/12/22 05:52:27;;;;;;;19.40;6.20;;;4.60;86.70;;;;;;5093194;28;20036;-46
2023/12/22 05:54:54;;;;;;;9.52;2.45;;;4.70;86.20;;;;;;5077816;28;20036;-45
2023/12/22 05:57:21;;;;;;;18.52;5.60;;;4.60;85.70;;;;;;5055534;28;20045;-45
2023/12/22 05:59:51;;;;;;;22.70;4.57;;;4.60;86.00;;;;;;5072846;28;20028;-46
2023/12/22 06:02:21;;;;;;;17.77;3.58;;;4.50;86.40;;;;;;5075119;28;20083;-46
2023/12/22 06:04:47;;;;;;;16.63;3.42;;;4.50;86.40;;;;;;5075667;28;20472;-46
2023/12/22 06:07:15;;;;;;;16.20;3.55;;;4.50;85.10;;;;;;5093171;28;20042;-45
2023/12/22 06:09:43;;;;;;;18.02;4.25;;;4.50;84.30;;;;;;5075419;28;20042;-46
2023/12/22 06:12:10;;;;;;;19.30;6.50;;;4.60;84.00;;;;;;5087734;28;20032;-46
2023/12/22 06:14:36;;;;;;;15.35;2.72;;;4.70;83.40;;;;;;5088077;28;20119;-46
2023/12/22 06:17:06;;;;;;;10.65;2.20;;;4.80;82.00;;;;;;5093031;28;20103;-47
2023/12/22 06:19:36;;;;;;;11.82;1.88;;;4.80;82.00;;;;;;5093298;28;20028;-47
2023/12/22 06:22:04;;;;;;;12.73;2.78;;;4.70;82.30;;;;;;5074463;28;20028;-47
2023/12/22 06:24:31;;;;;;;14.18;2.63;;;4.70;81.70;;;;;;5093918;28;20047;-46
2023/12/22 06:26:56;;;;;;;17.40;3.40;;;4.70;81.30;;;;;;5099094;28;20391;-47
2023/12/22 06:29:23;;;;;;;14.13;2.92;;;4.80;80.30;;;;;;5099656;28;20131;-47
2023/12/22 06:31:51;;;;;;;16.50;3.25;;;4.80;80.70;;;;;;5088783;28;20073;-47
2023/12/22 06:34:18;;;;;;;17.77;3.90;;;4.90;80.20;;;;;;5079384;28;20039;-47
2023/12/22 06:36:45;;;;;;;17.85;4.32;;;4.90;80.60;;;;;;5079213;28;20033;-47
2023/12/22 06:39:11;;;;;;;21.95;3.72;;;5.00;80.70;;;;;;5080312;28;20028;-47
2023/12/22 06:41:38;;;;;;;13.02;3.30;;;5.00;81.10;;;;;;5099426;28;20020;-47
2023/12/22 06:44:10;;;;;;;24.35;4.22;;;5.20;81.80;;;;;;5099578;28;20358;-47
2023/12/22 06:46:36;;;;;;;22.38;4.85;;;5.20;82.30;;;;;;5080820;28;20537;-48
2023/12/22 06:49:06;;;;;;;23.52;4.43;;;5.20;81.70;;;;;;5065642;28;20053;-49
2023/12/22 06:51:35;;;;;;;22.45;6.55;;;5.30;81.20;;;;;;5097860;28;20460;-47
2023/12/22 06:54:05;;;;;;;22.90;4.30;;;5.30;81.40;;;;;;5062180;28;20040;-47
2023/12/22 06:56:35;;;;;;;21.75;4.00;;;5.20;82.30;;;;;;5062104;28;20392;-47
2023/12/22 06:59:02;;;;;;;15.55;3.92;;;5.20;83.00;;;;;;5049750;28;20093;-48
2023/12/22 07:01:29;;;;;;;27.50;4.55;;;5.20;83.20;;;;;;5095729;28;20042;-47
2023/12/22 07:03:56;;;;;;;23.48;5.18;;;5.30;82.90;;;;;;5099066;28;20039;-46
2023/12/22 07:06:27;;;;;;;24.52;4.55;;;5.40;81.00;;;;;;5087969;28;20036;-47
2023/12/22 07:09:16;;;;;;;16.65;4.00;;;5.40;81.00;;;;;;5088117;28;20039;-49
2023/12/22 07:11:58;;;;;;;27.38;3.97;;;5.40;81.00;;;;;;5070844;28;20044;-47
2023/12/22 07:14:28;;;;;;;26.88;5.75;;;5.50;80.90;;;;;;5107246;28;20040;-46
2023/12/22 07:16:57;;;;;;;26.10;5.07;;;5.70;81.20;;;;;;5103784;28;20031;-47
2023/12/22 07:19:25;;;;;;;26.92;4.60;;;5.70;81.70;;;;;;5100127;28;20034;-46
2023/12/22 07:21:50;;;;;;;19.52;4.18;;;5.70;81.70;;;;;;5080675;28;20051;-47
2023/12/22 07:24:19;;;;;;;43.55;6.97;;;5.70;82.40;;;;;;5098839;28;20060;-47
2023/12/22 07:26:47;;;;;;;30.10;5.25;;;5.70;82.10;;;;;;5091163;28;20032;-48
2023/12/22 07:29:14;;;;;;;13.40;4.25;;;5.70;81.20;;;;;;5092168;28;20028;-47
2023/12/22 07:31:43;;;;;;;16.65;3.30;;;5.60;76.40;;;;;;5096436;28;20381;-47
2023/12/22 07:34:09;;;;;;;;;;;5.60;73.60;;;;;;5094347;28;20486;-50
2023/12/22 07:36:36;;;;;;;8.80;3.13;;;5.60;72.50;;;;;;5089222;28;20002;-47
2023/12/22 07:39:01;;;;;;;14.32;4.38;;;5.70;72.60;;;;;;5094382;28;20012;-48
2023/12/22 07:41:34;;;;;;;13.40;3.50;;;5.60;73.50;;;;;;5078209;28;20020;-47
2023/12/22 07:44:02;;;;;;;24.70;4.28;;;5.60;74.70;;;;;;5082876;28;20028;-46
2023/12/22 07:46:30;;;;;;;21.05;4.47;;;5.60;75.20;;;;;;5076638;28;20042;-46
2023/12/22 07:48:57;;;;;;;22.90;4.90;;;5.70;76.50;;;;;;5076857;28;20036;-47
2023/12/22 07:51:23;;;;;;;21.23;5.93;;;5.60;77.60;;;;;;5077342;28;20043;-47
2023/12/22 07:53:50;;;;;;;16.83;4.15;;;5.70;78.30;;;;;;5102376;28;20028;-47
2023/12/22 07:56:17;;;;;;;22.35;5.68;;;5.60;79.00;;;;;;5101673;28;20426;-46
2023/12/22 07:58:45;;;;;;;23.52;4.70;;;5.60;79.80;;;;;;5098753;28;20055;-46
2023/12/22 08:01:12;;;;;;;22.95;5.78;;;5.70;79.70;;;;;;5087441;28;20077;-46
2023/12/22 08:03:40;;;;;;;24.52;4.72;;;5.70;79.70;;;;;;5076812;28;20028;-46
2023/12/22 08:06:07;;;;;;;12.07;2.92;;;5.70;77.80;;;;;;5097533;28;20341;-47
2023/12/22 08:08:35;;;;;;;14.68;3.50;;;5.80;76.90;;;;;;5082348;28;20028;-47
2023/12/22 08:11:02;;;;;;;14.70;3.58;;;5.90;75.40;;;;;;5092067;28;20119;-46
2023/12/22 08:13:29;;;;;;;17.70;3.28;;;5.90;75.20;;;;;;5089513;28;20035;-48
2023/12/22 08:15:56;;;;;;;14.63;3.35;;;6.00;74.30;;;;;;5074086;28;20033;-48
2023/12/22 08:18:23;;;;;;;18.33;6.10;;;6.00;74.60;;;;;;5068625;28;20472;-46
2023/12/22 08:20:51;;;;;;;18.25;3.92;;;6.10;74.20;;;;;;5099037;28;20047;-47
2023/12/22 08:23:21;;;;;;;23.42;4.55;;;6.20;75.70;;;;;;5076451;28;20036;-46
2023/12/22 08:25:49;;;;;;;19.20;3.85;;;6.20;78.90;;;;;;5092314;28;20067;-45
2023/12/22 08:28:19;;;;;;;12.43;2.75;;;5.90;80.80;;;;;;5092098;28;20043;-45
2023/12/22 08:30:46;;;;;;;8.90;2.53;;;5.70;80.60;;;;;;5095924;28;20508;-42
2023/12/22 08:33:13;;;;;;;15.48;2.35;;;5.50;82.20;;;;;;5095977;28;20028;-46
2023/12/22 08:35:40;;;;;;;12.23;1.80;;;5.20;85.10;;;;;;5091442;28;20039;-47
2023/12/22 08:38:08;;;;;;;9.23;1.42;;;4.90;87.20;;;;;;5093780;28;20103;-46
2023/12/22 08:40:35;;;;;;;2.63;0.85;;;4.60;87.10;;;;;;5096584;28;20016;-48
2023/12/22 08:43:02;;;;;;;5.38;0.82;;;4.60;85.90;;;;;;5089903;28;20101;-45
2023/12/22 08:45:32;;;;;;;10.60;2.67;;;4.60;85.80;;;;;;5093146;28;20028;-46
2023/12/22 08:48:00;;;;;;;;;;;4.60;86.60;;;;;;5089310;28;20108;-50
2023/12/22 08:50:27;;;;;;;5.25;1.50;;;4.60;87.50;;;;;;5074033;28;20023;-56
2023/12/22 08:52:54;;;;;;;5.45;1.10;;;4.60;88.10;;;;;;5091537;28;20032;-57
2023/12/22 08:55:21;;;;;;;6.32;1.30;;;4.50;88.00;;;;;;5073587;28;20035;-48
2023/12/22 08:57:48;;;;;;;9.18;1.75;;;4.50;88.70;;;;;;5081380;28;20748;-47
2023/12/22 09:00:18;;;;;;;6.82;1.88;;;4.40;89.50;;;;;;5095679;28;20106;-47
2023/12/22 09:02:47;;;;;;;13.70;3.83;;;4.40;90.10;;;;;;5093980;28;20031;-53
2023/12/22 09:05:13;;;;;;;12.82;2.65;;;4.40;90.40;;;;;;5093559;28;20048;-51
2023/12/22 09:07:39;;;;;;;8.13;2.47;;;4.40;90.60;;;;;;5093626;28;20020;-52
2023/12/22 09:10:06;;;;;;;10.25;1.70;;;4.40;90.50;;;;;;5089169;28;20048;-48
2023/12/22 09:12:35;;;;;;;12.45;1.80;;;4.40;90.70;;;;;;5083303;28;20028;-55
2023/12/22 09:15:05;;;;;;;9.23;2.35;;;4.40;91.00;;;;;;5086544;28;20341;-50
2023/12/22 09:17:32;;;;;;;8.65;2.10;;;4.30;90.80;;;;;;5073489;28;20044;-49
2023/12/22 09:20:02;;;;;;;10.18;2.85;;;4.20;91.10;;;;;;5082496;28;20111;-46
2023/12/22 09:22:29;;;;;;;5.78;1.70;;;4.20;91.30;;;;;;5077914;28;20031;-48
2023/12/22 09:24:56;;;;;;;5.63;1.92;;;4.20;91.70;;;;;;5090956;28;20035;-48
2023/12/22 09:27:30;;;;;;;15.23;2.58;;;4.00;91.80;;;;;;5093059;28;20612;-50
2023/12/22 09:29:57;;;;;;;9.75;2.22;;;4.00;92.10;;;;;;5080000;28;20162;-51
2023/12/22 09:32:28;;;;;;;9.90;2.28;;;4.10;92.20;;;;;;5055620;28;20036;-49
2023/12/22 09:34:56;;;;;;;13.40;2.97;;;4.20;92.30;;;;;;5072936;28;20107;-49
2023/12/22 09:37:24;;;;;;;9.73;2.05;;;4.20;92.50;;;;;;5061638;28;20032;-51
2023/12/22 09:39:52;;;;;;;11.73;2.50;;;4.30;92.60;;;;;;5088947;28;20044;-48
2023/12/22 09:42:24;;;;;;;12.20;2.50;;;4.40;92.70;;;;;;5082992;28;20117;-51
2023/12/22 09:44:54;;;;;;;16.73;3.83;;;4.40;92.70;;;;;;5074811;28;20054;-50
2023/12/22 09:47:25;;;;;;;10.55;1.92;;;4.50;92.80;;;;;;5074251;28;20042;-49
2023/12/22 09:49:54;;;;;;;11.02;3.72;;;4.50;93.00;;;;;;5071556;28;20036;-49
2023/12/22 09:52:25;;;;;;;15.02;2.20;;;4.60;93.10;;;;;;5071575;28;20169;-50
2023/12/22 09:55:04;;;;;;;9.73;2.00;;;4.60;93.00;;;;;;5084649;28;20096;-50
2023/12/22 09:57:34;;;;;;;10.55;1.83;;;4.70;92.90;;;;;;5090077;28;20035;-47
2023/12/22 10:00:00;;;;;;;15.52;3.80;;;4.80;92.80;;;;;;5091839;28;20095;-49
2023/12/22 10:02:32;;;;;;;25.30;5.22;;;4.90;92.70;;;;;;5063056;28;20189;-47
2023/12/22 10:05:00;;;;;;;18.38;2.90;;;5.00;92.50;;;;;;5065831;28;20028;-46
2023/12/22 10:07:28;;;;;;;15.73;3.00;;;5.10;92.10;;;;;;5070071;28;20522;-46
2023/12/22 10:10:02;;;;;;;16.75;2.53;;;5.20;91.90;;;;;;5070713;28;20044;-47
2023/12/22 10:12:30;;;;;;;15.50;2.70;;;5.30;91.70;;;;;;5055416;28;20335;-46
2023/12/22 10:14:59;;;;;;;12.25;2.92;;;5.30;91.60;;;;;;5049047;28;20181;-47
2023/12/22 10:17:28;;;;;;;18.70;2.78;;;5.40;91.60;;;;;;5069603;28;20372;-45
2023/12/22 10:19:55;;;;;;;16.35;3.53;;;5.50;91.60;;;;;;5090369;28;20024;-46
2023/12/22 10:22:23;;;;;;;13.65;3.72;;;5.50;91.40;;;;;;5091886;28;20032;-45
2023/12/22 10:24:51;;;;;;;22.50;4.10;;;5.50;91.20;;;;;;5109050;28;20031;-46
2023/12/22 10:27:23;;;;;;;14.63;4.03;;;5.50;91.20;;;;;;5108869;28;20036;-55
2023/12/22 10:29:53;;;;;;;14.13;2.80;;;5.50;91.30;;;;;;5067515;28;20037;-54
2023/12/22 10:32:21;;;;;;;20.50;3.17;;;5.20;90.90;;;;;;5092232;28;20042;-52
2023/12/22 10:34:53;;;;;;;13.93;3.17;;;4.90;91.70;;;;;;5086729;28;20465;-51
2023/12/22 10:37:18;;;;;;;16.88;3.33;;;4.80;92.20;;;;;;5057715;28;20040;-49
2023/12/22 10:39:48;;;;;;;13.00;3.28;;;4.70;92.90;;;;;;5091222;28;20118;-48
2023/12/22 10:42:18;;;;;;;16.27;2.83;;;4.70;93.10;;;;;;5075000;28;20614;-50
2023/12/22 10:44:47;;;;;;;18.73;2.60;;;4.80;93.40;;;;;;5072473;28;20033;-49
2023/12/22 10:47:16;;;;;;;14.50;2.95;;;4.80;93.30;;;;;;5074199;28;20098;-48
2023/12/22 10:49:46;;;;;;;21.95;3.55;;;4.80;93.10;;;;;;5071543;28;20116;-48
2023/12/22 10:52:23;;;;;;;20.70;3.22;;;4.80;93.10;;;;;;5067397;28;20055;-50
2023/12/22 10:54:53;;;;;;;11.18;2.60;;;4.80;93.10;;;;;;5089964;28;20035;-47
2023/12/22 10:57:21;;;;;;;15.73;3.97;;;4.90;93.30;;;;;;5056975;28;20036;-47
2023/12/22 10:59:48;;;;;;;20.00;4.10;;;5.00;93.30;;;;;;5091454;28;20107;-48
2023/12/22 11:02:29;;;;;;;14.95;3.30;;;5.00;93.20;;;;;;5074154;28;20040;-47
2023/12/22 11:05:16;;;;;;;19.20;5.13;;;5.10;93.20;;;;;;5090820;28;20020;-46
2023/12/22 11:07:49;;;;;;;19.85;3.58;;;5.20;93.10;;;;;;5075329;28;20110;-46
2023/12/22 11:10:24;;;;;;;20.38;3.13;;;5.20;93.00;;;;;;5092203;28;20044;-49
2023/12/22 11:12:57;;;;;;;24.00;3.92;;;5.30;93.00;;;;;;5087128;28;20104;-45
2023/12/22 11:15:27;;;;;;;18.25;4.03;;;5.30;93.00;;;;;;5075351;28;20032;-45
2023/12/22 11:17:57;;;;;;;26.77;4.53;;;5.40;93.10;;;;;;5074818;28;20032;-45
2023/12/22 11:20:27;;;;;;;14.30;3.88;;;5.40;93.10;;;;;;5094977;28;20028;-46
2023/12/22 11:22:59;;;;;;;26.10;5.30;;;5.40;93.20;;;;;;5095025;28;20568;-45
2023/12/22 11:25:29;;;;;;;19.85;3.22;;;5.60;93.20;;;;;;5095059;28;20081;-45
2023/12/22 11:28:00;;;;;;;17.10;3.30;;;5.70;92.70;;;;;;5076809;28;20502;-47
2023/12/22 11:30:30;;;;;;;16.98;3.08;;;5.90;91.50;;;;;;5088796;28;20042;-46
2023/12/22 11:32:59;;;;;;;14.68;3.20;;;5.90;90.40;;;;;;5077550;28;20066;-46
2023/12/22 11:35:27;;;;;;;11.40;3.22;;;5.90;90.00;;;;;;5065259;28;20115;-46
2023/12/22 11:38:02;;;;;;;26.95;3.97;;;5.90;90.00;;;;;;5086831;28;20032;-45
2023/12/22 11:40:31;;;;;;;13.40;3.42;;;6.00;90.00;;;;;;5062152;28;20449;-46
2023/12/22 11:43:01;;;;;;;15.95;3.15;;;6.00;89.70;;;;;;5090790;28;20024;-45
2023/12/22 11:45:31;;;;;;;20.10;3.47;;;6.00;89.70;;;;;;5077398;28;20035;-45
2023/12/22 11:48:08;;;;;;;11.68;2.67;;;6.00;89.70;;;;;;5077385;28;20111;-46
2023/12/22 11:50:34;;;;;;;13.02;2.70;;;6.10;89.50;;;;;;5090899;28;20037;-46
2023/12/22 11:53:21;;;;;;;18.52;3.45;;;6.10;89.60;;;;;;5080596;28;20165;-48
2023/12/22 11:56:18;;;;;;;13.43;3.03;;;6.10;89.40;;;;;;5095330;28;20035;-45
2023/12/22 11:58:54;;;;;;;14.55;3.55;;;6.10;89.30;;;;;;5095996;28;20047;-47
2023/12/22 12:01:33;;;;;;;17.48;3.47;;;6.10;89.10;;;;;;5087046;28;20043;-46
2023/12/22 12:04:01;;;;;;;;;;;6.10;88.80;;;;;;5093057;28;20039;-46
2023/12/22 12:06:37;;;;;;;11.40;2.90;;;6.10;88.90;;;;;;5093605;28;20256;-46
2023/12/22 12:09:10;;;;;;;14.23;2.75;;;6.10;88.40;;;;;;5094181;28;20028;-46
2023/12/22 12:11:54;;;;;;;15.63;3.25;;;6.10;88.40;;;;;;5073815;28;20040;-46
2023/12/22 12:14:34;;;;;;;19.15;2.88;;;6.10;88.50;;;;;;5076783;28;20032;-48
2023/12/22 12:17:08;;;;;;;;;;;6.10;88.40;;;;;;5061305;28;20059;-46
2023/12/22 12:19:47;;;;;;;14.23;2.95;;;6.20;88.10;;;;;;5093963;28;19904;-47
2023/12/22 12:22:14;;;;;;;10.43;2.75;;;6.20;88.30;;;;;;5070055;28;20028;-47
2023/12/22 12:24:42;;;;;;;15.98;2.75;;;6.20;88.20;;;;;;5091694;28;20043;-47
2023/12/22 12:27:08;;;;;;;11.30;3.38;;;6.20;88.20;;;;;;5094176;28;20031;-48
2023/12/22 12:29:35;;;;;;;15.05;2.83;;;6.20;87.80;;;;;;5076179;28;20036;-47
2023/12/22 12:32:06;;;;;;;15.27;2.67;;;6.20;87.70;;;;;;5090695;28;20105;-47
2023/12/22 12:34:34;;;;;;;9.25;1.80;;;6.20;87.90;;;;;;5074710;28;20071;-47
2023/12/22 12:37:03;;;;;;;10.43;2.63;;;6.20;87.90;;;;;;5091688;28;20024;-48
2023/12/22 12:39:31;;;;;;;9.13;3.25;;;6.20;88.00;;;;;;5051169;28;20117;-46
2023/12/22 12:42:06;;;;;;;18.90;3.60;;;6.20;88.00;;;;;;5074339;28;20024;-45
2023/12/22 12:44:35;;;;;;;13.85;2.35;;;6.20;88.00;;;;;;5066074;28;20094;-45
2023/12/22 12:47:13;;;;;;;18.50;3.38;;;6.00;88.50;;;;;;5056141;28;20083;-46
2023/12/22 12:49:39;;;;;;;13.38;2.85;;;6.00;88.90;;;;;;5074744;28;20441;-45
2023/12/22 12:52:17;;;;;;;14.50;2.70;;;6.00;89.20;;;;;;5075572;28;20042;-46
2023/12/22 12:54:43;;;;;;;8.02;1.70;;;5.90;87.90;;;;;;5094137;28;20066;-45
2023/12/22 12:57:19;;;;;;;9.57;2.00;;;5.90;87.40;;;;;;5093799;28;20048;-45
2023/12/22 12:59:49;;;;;;;7.80;1.80;;;5.90;86.60;;;;;;5093416;28;20028;-46